Downstream station:
SHEF ID: ELMA4 Osage Creek near Elm Springs, AR
STATION TYPE:
STAGE RIV-FLOW BAT-LOAD
ft cfs volt
Ccp-Rev Ccp-Rev Ccp-Rev
(US/Central)
12/17 00:00 2.45 115 12.67
12/17 01:00 2.45 115 12.65
12/17 02:00 2.45 115 12.65
12/17 03:00 2.44 113 12.63
12/17 04:00 2.45 115 12.61
12/17 05:00 2.44 113 12.60
12/17 06:00 2.43 112 12.57
12/17 07:00 2.40 107 12.55
12/17 08:00 2.40 107 12.55
12/17 09:00 2.40 107 12.54
12/17 10:00 2.41 108 12.53
12/17 11:00 ---- ---- ----
12/17 12:00 2.80 182 ----
12/17 13:00 3.18 273 12.53
12/17 14:00 3.19 275 12.77
12/17 15:00 4.34 660 13.19
12/17 16:00 6.02 1518 12.91
12/17 17:00 6.46 1800 12.71
12/17 18:00 6.95 2143 12.61
12/17 19:00 8.15 3008 12.57
12/17 20:00 10.12 4675 12.56
12/17 21:00 11.59 6117 12.56
12/17 22:00 12.14 6784 12.56
12/17 23:00 12.48 7250 12.55